Time;durP1;ratioP1;P1;durP2;ratioP2;P2;SDS_P1;SDS_P2;PMS_P1;PMS_P2;Temp;Humidity;BMP_temperature;BMP_pressure;BME280_temperature;BME280_humidity;BME280_pressure;Samples;Min_cycle;Max_cycle;Signal;HPM_P1;HPM_P2
2023/05/25 00:01:17;;;;;;;;;;;16.60;86.90;;;;;;5029871;28;19916;-78
2023/05/25 00:03:44;;;;;;;;;;;16.60;85.10;;;;;;5028538;28;19905;-78
2023/05/25 00:06:10;;;;;;;;;;;16.60;85.40;;;;;;5026018;28;19920;-78
2023/05/25 00:08:37;;;;;;;;;;;16.60;85.40;;;;;;5030827;28;19909;-78
2023/05/25 00:11:03;;;;;;;;;;;16.60;84.80;;;;;;5029792;28;19913;-78
2023/05/25 00:13:29;;;;;;;;;;;16.60;84.80;;;;;;5033365;28;20375;-78
2023/05/25 00:15:54;;;;;;;;;;;16.60;85.00;;;;;;5032094;28;19909;-78
2023/05/25 00:18:20;;;;;;;;;;;16.60;85.00;;;;;;5036885;28;20371;-79
2023/05/25 00:20:46;;;;;;;;;;;16.60;85.30;;;;;;5029678;28;19912;-78
2023/05/25 00:23:11;;;;;;;;;;;16.60;85.10;;;;;;5026759;28;20284;-78
2023/05/25 00:25:37;;;;;;;;;;;16.60;85.00;;;;;;5030741;28;19980;-78
2023/05/25 00:28:03;;;;;;;;;;;16.60;85.10;;;;;;5032734;28;19966;-78
2023/05/25 00:30:29;;;;;;;;;;;16.50;85.30;;;;;;5029388;28;20409;-78
2023/05/25 00:32:54;;;;;;;;;;;16.40;86.70;;;;;;5051092;28;19909;-78
2023/05/25 00:35:20;;;;;;;;;;;16.20;87.60;;;;;;5036420;28;19908;-78
2023/05/25 00:37:46;;;;;;;;;;;16.10;88.10;;;;;;5030505;28;19998;-78
2023/05/25 00:40:14;;;;;;;;;;;16.00;88.50;;;;;;5036048;28;19920;-79
2023/05/25 00:42:39;;;;;;;;;;;16.00;88.20;;;;;;5032830;28;19913;-79
2023/05/25 00:45:05;;;;;;;;;;;16.00;86.10;;;;;;5030914;28;19909;-79
2023/05/25 00:47:32;;;;;;;;;;;16.00;86.20;;;;;;5036629;28;20786;-78
2023/05/25 00:49:57;;;;;;;;;;;16.00;85.70;;;;;;5038407;28;19924;-78
2023/05/25 00:52:25;;;;;;;;;;;16.00;86.40;;;;;;5035009;28;19913;-78
2023/05/25 00:54:53;;;;;;;;;;;16.00;85.70;;;;;;5038347;28;20332;-78
2023/05/25 00:57:21;;;;;;;;;;;15.90;86.20;;;;;;5039510;28;19916;-78
2023/05/25 00:59:50;;;;;;;;;;;15.80;87.80;;;;;;5039846;28;19909;-78
2023/05/25 01:02:16;;;;;;;;;;;15.70;87.00;;;;;;5033520;28;19913;-78
2023/05/25 01:04:44;;;;;;;;;;;15.70;86.60;;;;;;5032073;28;19917;-77
2023/05/25 01:07:11;;;;;;;;;;;15.70;87.10;;;;;;5033073;28;19909;-79
2023/05/25 01:09:42;;;;;;;;;;;15.70;86.70;;;;;;5027212;28;20525;-78
2023/05/25 01:12:09;;;;;;;;;;;15.70;87.00;;;;;;5033626;28;19920;-78
2023/05/25 01:14:36;;;;;;;;;;;15.60;87.70;;;;;;5039094;28;19909;-78
2023/05/25 01:17:02;;;;;;;;;;;15.60;87.30;;;;;;5034739;28;19946;-79
2023/05/25 01:19:27;;;;;;;;;;;15.50;88.30;;;;;;5035845;28;19905;-77
2023/05/25 01:21:56;;;;;;;;;;;15.30;90.50;;;;;;5033732;28;20337;-78
2023/05/25 01:24:29;;;;;;;;;;;15.10;90.10;;;;;;5034957;28;19924;-78
2023/05/25 01:27:26;;;;;;;;;;;15.10;89.10;;;;;;5038965;28;19919;-79
2023/05/25 01:29:52;;;;;;;;;;;15.20;88.20;;;;;;5028402;28;19971;-78
2023/05/25 01:32:18;;;;;;;;;;;15.10;89.50;;;;;;5035201;28;20359;-78
2023/05/25 01:34:44;;;;;;;;;;;14.90;91.60;;;;;;5032237;28;20368;-78
2023/05/25 01:37:12;;;;;;;;;;;14.80;91.70;;;;;;5038826;28;19913;-79
2023/05/25 01:39:38;;;;;;;;;;;14.90;90.00;;;;;;5032886;28;19939;-78
2023/05/25 01:42:05;;;;;;;;;;;14.90;90.30;;;;;;5032798;28;19936;-78
2023/05/25 01:44:31;;;;;;;;;;;14.90;89.20;;;;;;5032091;28;20369;-79
2023/05/25 01:47:17;;;;;;;;;;;14.90;89.70;;;;;;5032120;28;19955;-79
2023/05/25 01:49:45;;;;;;;;;;;14.90;90.00;;;;;;5059682;28;20375;-79
2023/05/25 01:52:13;;;;;;;;;;;14.60;92.30;;;;;;5030702;28;21770;-79
2023/05/25 01:54:40;;;;;;;;;;;14.50;92.70;;;;;;5034015;28;19941;-79
2023/05/25 01:57:09;;;;;;;;;;;14.50;92.30;;;;;;5030849;28;19913;-79
2023/05/25 01:59:35;;;;;;;;;;;14.50;91.00;;;;;;5030662;28;19948;-79
2023/05/25 02:02:01;;;;;;;;;;;14.60;89.80;;;;;;5025243;28;19967;-79
2023/05/25 02:04:27;;;;;;;;;;;14.70;89.70;;;;;;5032096;28;19905;-79
2023/05/25 02:06:53;;;;;;;;;;;14.60;91.30;;;;;;5030946;28;19966;-79
2023/05/25 02:09:18;;;;;;;;;;;14.70;89.80;;;;;;5034924;28;19917;-79
2023/05/25 02:11:44;;;;;;;;;;;14.70;89.40;;;;;;5031966;28;19905;-79
2023/05/25 02:14:09;;;;;;;;;;;14.80;89.60;;;;;;5033967;28;19947;-78
2023/05/25 02:16:35;;;;;;;;;;;14.80;89.70;;;;;;5033660;28;19944;-78
2023/05/25 02:19:01;;;;;;;;;;;14.90;90.00;;;;;;5031720;28;19995;-78
2023/05/25 02:21:27;;;;;;;;;;;14.90;89.60;;;;;;5030533;28;20526;-80
2023/05/25 02:23:56;;;;;;;;;;;14.90;89.50;;;;;;5033189;28;19925;-78
2023/05/25 02:26:22;;;;;;;;;;;15.00;89.30;;;;;;5030442;28;19915;-78
2023/05/25 02:28:48;;;;;;;;;;;15.00;89.20;;;;;;5035283;28;19996;-78
2023/05/25 02:31:13;;;;;;;;;;;15.00;89.20;;;;;;5029511;28;19916;-77
2023/05/25 02:33:39;;;;;;;;;;;15.00;88.80;;;;;;5031786;28;19913;-79
2023/05/25 02:36:04;;;;;;;;;;;14.90;89.00;;;;;;5032205;28;19999;-78
2023/05/25 02:38:30;;;;;;;;;;;14.90;89.00;;;;;;5034971;28;20318;-78
2023/05/25 02:40:55;;;;;;;;;;;14.80;89.90;;;;;;5033740;28;19912;-78
2023/05/25 02:43:21;;;;;;;;;;;14.70;89.60;;;;;;5032296;28;19913;-78
2023/05/25 02:45:46;;;;;;;;;;;14.70;89.70;;;;;;5034518;28;19916;-79
2023/05/25 02:48:12;;;;;;;;;;;14.70;89.70;;;;;;5030869;28;19968;-78
2023/05/25 02:50:38;;;;;;;;;;;14.70;90.60;;;;;;5034378;28;20007;-78
2023/05/25 02:53:03;;;;;;;;;;;14.60;90.40;;;;;;5031130;28;20420;-78
2023/05/25 02:55:29;;;;;;;;;;;14.60;90.10;;;;;;5028481;28;19999;-79
2023/05/25 02:57:54;;;;;;;;;;;14.50;91.40;;;;;;5039258;28;20403;-79
2023/05/25 03:00:20;;;;;;;;;;;14.50;91.70;;;;;;5032774;28;19909;-79
2023/05/25 03:02:47;;;;;;;;;;;14.50;90.50;;;;;;5025826;28;20383;-79
2023/05/25 03:05:13;;;;;;;;;;;14.50;90.70;;;;;;5030375;28;19931;-79
2023/05/25 03:07:39;;;;;;;;;;;14.40;92.00;;;;;;5034041;28;19982;-78
2023/05/25 03:10:05;;;;;;;;;;;14.30;93.10;;;;;;5029190;28;19917;-78
2023/05/25 03:12:31;;;;;;;;;;;14.40;91.10;;;;;;5030919;28;20349;-77
2023/05/25 03:14:56;;;;;;;;;;;14.40;91.10;;;;;;5037986;28;19948;-80
2023/05/25 03:17:22;;;;;;;;;;;14.50;91.20;;;;;;5039263;28;19908;-78
2023/05/25 03:19:47;;;;;;;;;;;14.50;91.00;;;;;;5035776;28;20345;-78
2023/05/25 03:22:13;;;;;;;;;;;14.50;90.50;;;;;;5028754;28;19992;-78
2023/05/25 03:24:40;;;;;;;;;;;14.50;90.60;;;;;;5030510;28;19915;-79
2023/05/25 03:27:06;;;;;;;;;;;14.50;90.40;;;;;;5029858;28;19909;-77
2023/05/25 03:29:32;;;;;;;;;;;14.50;91.20;;;;;;5030480;28;20306;-79
2023/05/25 03:31:58;;;;;;;;;;;14.50;90.60;;;;;;5031319;28;19908;-79
2023/05/25 03:34:23;;;;;;;;;;;14.50;90.60;;;;;;5032940;28;19909;-79
2023/05/25 03:36:50;;;;;;;;;;;14.40;91.40;;;;;;5030043;28;19909;-79
2023/05/25 03:39:15;;;;;;;;;;;14.40;90.90;;;;;;5055735;28;20379;-79
2023/05/25 03:41:42;;;;;;;;;;;14.30;92.90;;;;;;5031690;28;19909;-79
2023/05/25 03:44:09;;;;;;;;;;;14.20;93.30;;;;;;5029966;28;20299;-79
2023/05/25 03:46:35;;;;;;;;;;;14.30;91.90;;;;;;5029504;28;19949;-79
2023/05/25 03:49:00;;;;;;;;;;;14.30;91.60;;;;;;5031317;28;20899;-79
2023/05/25 03:51:28;;;;;;;;;;;14.40;91.30;;;;;;5031039;28;19960;-78
2023/05/25 03:53:53;;;;;;;;;;;14.40;91.10;;;;;;5030592;28;20349;-79
2023/05/25 03:56:20;;;;;;;;;;;14.50;91.00;;;;;;5033596;28;19913;-80
2023/05/25 03:58:45;;;;;;;;;;;14.50;91.10;;;;;;5028203;28;20505;-79
2023/05/25 04:01:12;;;;;;;;;;;14.50;91.80;;;;;;5029348;28;19917;-78
2023/05/25 04:03:38;;;;;;;;;;;14.50;92.90;;;;;;5029943;28;20268;-78
2023/05/25 04:06:03;;;;;;;;;;;14.40;93.50;;;;;;5030145;28;19912;-79
2023/05/25 04:08:29;;;;;;;;;;;14.50;92.70;;;;;;5033257;28;20004;-76
2023/05/25 04:10:55;;;;;;;;;;;14.50;92.40;;;;;;5029537;28;20358;-77
2023/05/25 04:13:20;;;;;;;;;;;14.70;91.90;;;;;;5027511;28;19909;-78
2023/05/25 04:15:46;;;;;;;;;;;14.80;91.20;;;;;;5040739;28;20464;-78
2023/05/25 04:18:12;;;;;;;;;;;14.90;91.00;;;;;;5036649;28;19999;-79
2023/05/25 04:20:37;;;;;;;;;;;15.00;91.00;;;;;;5033475;28;19915;-79
2023/05/25 04:23:03;;;;;;;;;;;15.10;91.10;;;;;;5032956;28;19913;-79
2023/05/25 04:25:28;;;;;;;;;;;15.20;91.00;;;;;;5029668;28;19909;-79
2023/05/25 04:27:55;;;;;;;;;;;15.30;90.80;;;;;;5034101;28;19944;-77
2023/05/25 04:30:21;;;;;;;;;;;15.30;90.50;;;;;;5031883;28;19975;-78
2023/05/25 04:32:46;;;;;;;;;;;15.40;90.60;;;;;;5029982;28;19944;-78
2023/05/25 04:35:14;;;;;;;;;;;15.50;90.60;;;;;;5031206;28;19939;-78
2023/05/25 04:37:40;;;;;;;;;;;15.60;90.40;;;;;;5065437;28;19956;-77
2023/05/25 04:40:10;;;;;;;;;;;15.70;90.10;;;;;;5033672;28;20264;-79
2023/05/25 04:42:37;;;;;;;;;;;15.80;90.10;;;;;;5032086;28;19909;-79
2023/05/25 04:45:03;;;;;;;;;;;16.00;90.30;;;;;;5032785;28;20302;-78
2023/05/25 04:47:29;;;;;;;;;;;16.10;90.40;;;;;;5031985;28;19912;-79
2023/05/25 04:49:55;;;;;;;;;;;16.20;89.80;;;;;;5035032;28;19924;-78
2023/05/25 04:52:20;;;;;;;;;;;16.30;89.80;;;;;;5033194;28;19909;-78
2023/05/25 04:54:46;;;;;;;;;;;16.40;89.30;;;;;;5027621;28;19916;-78
2023/05/25 04:57:11;;;;;;;;;;;16.50;89.70;;;;;;5026676;28;19908;-80
2023/05/25 04:59:37;;;;;;;;;;;16.60;89.30;;;;;;5030405;28;19995;-79
2023/05/25 05:02:03;;;;;;;;;;;16.70;89.10;;;;;;5034751;28;19988;-82
2023/05/25 05:04:29;;;;;;;;;;;16.80;88.90;;;;;;5033848;28;19905;-79
2023/05/25 05:06:54;;;;;;;;;;;16.80;88.70;;;;;;5042568;28;19955;-78
2023/05/25 05:09:20;;;;;;;;;;;16.90;88.80;;;;;;5033116;28;21601;-79
2023/05/25 05:11:46;;;;;;;;;;;16.90;88.50;;;;;;5032058;28;20024;-79
2023/05/25 05:14:11;;;;;;;;;;;16.90;88.00;;;;;;5030559;28;19988;-78
2023/05/25 05:16:37;;;;;;;;;;;16.90;87.40;;;;;;5032416;28;19913;-79
2023/05/25 05:19:02;;;;;;;;;;;16.90;87.50;;;;;;5034626;28;19909;-79
2023/05/25 05:21:28;;;;;;;;;;;16.90;87.50;;;;;;5029452;28;19997;-81
2023/05/25 05:23:54;;;;;;;;;;;16.90;87.70;;;;;;5029695;28;19920;-79
2023/05/25 05:26:20;;;;;;;;;;;16.90;87.40;;;;;;5026883;28;19960;-80
2023/05/25 05:28:46;;;;;;;;;;;16.90;87.40;;;;;;5030056;28;19917;-79
2023/05/25 05:31:11;;;;;;;;;;;17.00;87.60;;;;;;5032369;28;19944;-79
2023/05/25 05:33:37;;;;;;;;;;;17.10;87.40;;;;;;5032188;28;20311;-79
2023/05/25 05:36:03;;;;;;;;;;;17.10;87.40;;;;;;5033222;28;19909;-79
2023/05/25 05:38:29;;;;;;;;;;;17.20;87.40;;;;;;5029373;28;20014;-79
2023/05/25 05:40:54;;;;;;;;;;;17.30;87.20;;;;;;5034930;28;19944;-79
2023/05/25 05:43:20;;;;;;;;;;;17.30;87.10;;;;;;5032004;28;19909;-77
2023/05/25 05:45:45;;;;;;;;;;;17.40;87.20;;;;;;5027442;28;19975;-79
2023/05/25 05:48:11;;;;;;;;;;;17.50;87.10;;;;;;5034308;28;19912;-78
2023/05/25 05:50:37;;;;;;;;;;;17.50;86.30;;;;;;5032688;28;19949;-78
2023/05/25 05:53:03;;;;;;;;;;;17.60;86.80;;;;;;5026814;28;19909;-78
2023/05/25 05:55:28;;;;;;;;;;;17.70;86.30;;;;;;5027713;28;19917;-80
2023/05/25 05:57:54;;;;;;;;;;;17.80;86.20;;;;;;5035025;28;20496;-81
2023/05/25 06:00:20;;;;;;;;;;;17.90;85.40;;;;;;5031821;28;20410;-80
2023/05/25 06:02:45;;;;;;;;;;;17.90;85.40;;;;;;5031995;28;19909;-79
2023/05/25 06:05:11;;;;;;;;;;;18.00;85.00;;;;;;5031697;28;19932;-77
2023/05/25 06:07:37;;;;;;;;;;;18.10;85.50;;;;;;5035858;28;19917;-76
2023/05/25 06:10:06;;;;;;;;;;;18.10;84.40;;;;;;5029386;28;19913;-76
2023/05/25 06:12:31;;;;;;;;;;;18.20;84.00;;;;;;5033522;28;20002;-76
2023/05/25 06:14:57;;;;;;;;;;;18.30;84.80;;;;;;5032739;28;19909;-76
2023/05/25 06:17:23;;;;;;;;;;;18.40;84.10;;;;;;5034717;28;19988;-77
2023/05/25 06:19:48;;;;;;;;;;;18.50;84.20;;;;;;5032918;28;20272;-76
2023/05/25 06:22:14;;;;;;;;;;;18.60;84.20;;;;;;5033007;28;19956;-76
2023/05/25 06:24:40;;;;;;;;;;;18.70;84.10;;;;;;5033991;28;19966;-77
2023/05/25 06:27:06;;;;;;;;;;;18.80;83.50;;;;;;5032725;28;20262;-77
2023/05/25 06:29:31;;;;;;;;;;;18.90;83.20;;;;;;5032558;28;19913;-77
2023/05/25 06:31:57;;;;;;;;;;;19.00;82.90;;;;;;5031554;28;19909;-77
2023/05/25 06:34:22;;;;;;;;;;;19.10;83.10;;;;;;5030921;28;20389;-77
2023/05/25 06:36:48;;;;;;;;;;;19.20;83.10;;;;;;5032518;28;19939;-77
2023/05/25 06:39:14;;;;;;;;;;;19.30;83.20;;;;;;5029903;28;19909;-77
2023/05/25 06:41:39;;;;;;;;;;;19.40;82.30;;;;;;5028299;28;19905;-77
2023/05/25 06:44:07;;;;;;;;;;;19.50;80.70;;;;;;5028922;28;20345;-77
2023/05/25 06:46:33;;;;;;;;;;;19.70;82.00;;;;;;5031441;28;20334;-77
2023/05/25 06:48:59;;;;;;;;;;;19.70;81.10;;;;;;5033232;28;19913;-77
2023/05/25 06:51:26;;;;;;;;;;;19.80;80.80;;;;;;5032720;28;19984;-77
2023/05/25 06:53:52;;;;;;;;;;;19.90;80.90;;;;;;5031783;28;20370;-76
2023/05/25 06:56:18;;;;;;;;;;;20.00;80.50;;;;;;5026102;28;19909;-77
2023/05/25 06:58:44;;;;;;;;;;;20.00;80.40;;;;;;5033126;28;20287;-77
2023/05/25 07:01:09;;;;;;;;;;;20.10;80.20;;;;;;5033903;28;19912;-77
2023/05/25 07:03:35;;;;;;;;;;;20.10;80.20;;;;;;5032551;28;19916;-76
2023/05/25 07:06:00;;;;;;;;;;;20.20;81.00;;;;;;5032609;28;19909;-76
2023/05/25 07:08:26;;;;;;;;;;;20.30;80.20;;;;;;5033360;28;19906;-76
2023/05/25 07:10:51;;;;;;;;;;;20.40;80.30;;;;;;5031188;28;19920;-77
2023/05/25 07:13:17;;;;;;;;;;;20.50;79.90;;;;;;5031707;28;19905;-77
2023/05/25 07:15:42;;;;;;;;;;;20.60;79.50;;;;;;5029538;28;19935;-77
2023/05/25 07:18:11;;;;;;;;;;;20.60;79.90;;;;;;5032227;28;19958;-76
2023/05/25 07:20:38;;;;;;;;;;;20.80;80.10;;;;;;5020886;28;19932;-76
2023/05/25 07:23:03;;;;;;;;;;;21.00;80.20;;;;;;5030182;28;19930;-76
2023/05/25 07:25:29;;;;;;;;;;;21.10;78.70;;;;;;5024119;28;19909;-75
2023/05/25 07:27:55;;;;;;;;;;;21.10;78.50;;;;;;5029180;28;19931;-76
2023/05/25 07:30:20;;;;;;;;;;;21.30;79.30;;;;;;5029589;28;20027;-76
2023/05/25 07:32:46;;;;;;;;;;;21.40;78.60;;;;;;5027866;28;19918;-76
2023/05/25 07:35:11;;;;;;;;;;;21.60;77.60;;;;;;5029041;28;20405;-76
2023/05/25 07:37:37;;;;;;;;;;;21.70;77.00;;;;;;5027621;28;19917;-75
2023/05/25 07:40:02;;;;;;;;;;;21.80;75.70;;;;;;5021161;28;19909;-76
2023/05/25 07:42:32;;;;;;;;;;;21.90;75.10;;;;;;5029282;28;19963;-77
2023/05/25 07:44:59;;;;;;;;;;;21.90;75.90;;;;;;5024511;28;19909;-78
2023/05/25 07:47:25;;;;;;;;;;;21.80;76.30;;;;;;5029611;28;19911;-76
2023/05/25 07:49:51;;;;;;;;;;;21.70;76.80;;;;;;5028547;28;19932;-77
2023/05/25 07:52:17;;;;;;;;;;;21.90;76.50;;;;;;5022502;28;19916;-77
2023/05/25 07:54:43;;;;;;;;;;;22.00;73.20;;;;;;5021409;28;20003;-77
2023/05/25 07:57:09;;;;;;;;;;;21.70;73.90;;;;;;5027944;28;19959;-77
2023/05/25 07:59:34;;;;;;;;;;;21.70;74.80;;;;;;5029004;28;20340;-77
2023/05/25 08:02:00;;;;;;;;;;;21.80;74.70;;;;;;5027682;28;20530;-77
2023/05/25 08:04:26;;;;;;;;;;;21.70;74.40;;;;;;5025871;28;19909;-77
2023/05/25 08:06:51;;;;;;;;;;;21.80;74.90;;;;;;5024121;28;19992;-77
2023/05/25 08:09:17;;;;;;;;;;;21.80;75.20;;;;;;5026714;28;19932;-77
2023/05/25 08:11:44;;;;;;;;;;;21.90;74.90;;;;;;5025950;28;19909;-76
2023/05/25 08:14:10;;;;;;;;;;;22.00;74.60;;;;;;5010731;28;20511;-76
2023/05/25 08:16:35;;;;;;;;;;;22.00;74.00;;;;;;5014399;28;20011;-76
2023/05/25 08:19:01;;;;;;;;;;;22.10;74.30;;;;;;5017344;28;19943;-77
2023/05/25 08:21:27;;;;;;;;;;;22.10;73.90;;;;;;5010598;28;19916;-76
2023/05/25 08:23:53;;;;;;;;;;;22.10;73.50;;;;;;5017669;28;19920;-75
2023/05/25 08:26:18;;;;;;;;;;;21.90;73.40;;;;;;5014894;28;19916;-77
2023/05/25 08:28:44;;;;;;;;;;;21.90;73.90;;;;;;5017945;28;19981;-77
2023/05/25 08:31:09;;;;;;;;;;;21.70;74.00;;;;;;5018414;28;20331;-75
2023/05/25 08:33:36;;;;;;;;;;;21.50;74.80;;;;;;5022830;28;19913;-76
2023/05/25 08:36:01;;;;;;;;;;;21.40;75.40;;;;;;5017808;28;20003;-78
2023/05/25 08:38:27;;;;;;;;;;;21.20;76.00;;;;;;5023941;28;20411;-76
2023/05/25 08:41:11;;;;;;;;;;;21.00;77.30;;;;;;5016728;28;19913;-77
2023/05/25 08:43:36;;;;;;;;;;;20.90;77.60;;;;;;5018072;28;19917;-78
2023/05/25 08:46:03;;;;;;;;;;;20.70;78.20;;;;;;5020839;28;19991;-79
2023/05/25 08:48:29;;;;;;;;;;;20.60;78.70;;;;;;5016947;28;20483;-79
2023/05/25 08:50:57;;;;;;;;;;;20.50;79.20;;;;;;5018742;28;19921;-79
2023/05/25 08:53:24;;;;;;;;;;;20.30;79.70;;;;;;5015547;28;20432;-79
2023/05/25 08:55:50;;;;;;;;;;;20.20;80.90;;;;;;5018074;28;19997;-78
2023/05/25 08:58:18;;;;;;;;;;;20.00;81.00;;;;;;5042338;28;19913;-75
2023/05/25 09:00:48;;;;;;;;;;;19.90;81.30;;;;;;5016188;28;19918;-75
2023/05/25 09:03:16;;;;;;;;;;;19.80;82.00;;;;;;5024456;28;19920;-76
2023/05/25 09:05:42;;;;;;;;;;;19.60;81.70;;;;;;5017793;28;19967;-79
2023/05/25 09:08:08;;;;;;;;;;;19.50;81.60;;;;;;5020533;28;19936;-79
2023/05/25 09:10:34;;;;;;;;;;;19.40;82.40;;;;;;5015375;28;19921;-83
2023/05/25 09:13:00;;;;;;;;;;;19.30;82.30;;;;;;5020438;28;19932;-82
2023/05/25 09:15:26;;;;;;;;;;;19.20;81.80;;;;;;5022332;28;19912;-81
2023/05/25 09:17:52;;;;;;;;;;;19.00;81.70;;;;;;5016603;28;19920;-80
2023/05/25 09:20:18;;;;;;;;;;;18.90;82.40;;;;;;5019438;28;19961;-80
2023/05/25 09:22:44;;;;;;;;;;;18.90;83.30;;;;;;5019411;28;19924;-81
2023/05/25 09:25:10;;;;;;;;;;;18.80;84.40;;;;;;5020534;28;20615;-80
2023/05/25 09:27:36;;;;;;;;;;;18.80;83.60;;;;;;5017166;28;20000;-80
2023/05/25 09:30:02;;;;;;;;;;;18.70;83.40;;;;;;5020939;28;19921;-81
2023/05/25 09:32:28;;;;;;;;;;;18.70;83.90;;;;;;5017844;28;19920;-81
2023/05/25 09:34:56;;;;;;;;;;;18.70;85.70;;;;;;5024564;28;20386;-80
2023/05/25 09:37:22;;;;;;;;;;;18.70;84.50;;;;;;5016114;28;19922;-79
2023/05/25 09:39:50;;;;;;;;;;;18.70;84.70;;;;;;5018614;28;19975;-79
2023/05/25 09:45:00;;;;;;;;;;;18.70;84.60;;;;;;5019419;28;20006;-82
2023/05/25 09:47:26;;;;;;;;;;;18.70;84.60;;;;;;5021206;28;19952;-80
2023/05/25 09:49:52;;;;;;;;;;;18.60;86.30;;;;;;5021003;28;19999;-81
2023/05/25 09:52:19;;;;;;;;;;;18.60;86.60;;;;;;5024519;28;20504;-81
2023/05/25 09:54:46;;;;;;;;;;;18.70;86.80;;;;;;5021549;28;19920;-79
2023/05/25 09:57:12;;;;;;;;;;;18.80;86.80;;;;;;5017379;28;19920;-81
2023/05/25 09:59:38;;;;;;;;;;;19.00;87.50;;;;;;5020601;28;19912;-81
2023/05/25 10:02:03;;;;;;;;;;;19.20;86.10;;;;;;5020455;28;19967;-81
2023/05/25 10:04:29;;;;;;;;;;;19.40;84.20;;;;;;5019072;28;20369;-81
2023/05/25 10:06:55;;;;;;;;;;;19.60;84.60;;;;;;5017103;28;19920;-80
2023/05/25 10:09:22;;;;;;;;;;;19.80;84.00;;;;;;5018731;28;19917;-80
2023/05/25 10:11:50;;;;;;;;;;;20.00;84.30;;;;;;5019044;28;21132;-81
2023/05/25 10:14:18;;;;;;;;;;;20.30;84.80;;;;;;5022133;28;19920;-81
2023/05/25 10:16:47;;;;;;;;;;;20.60;83.20;;;;;;5019444;28;19913;-81
2023/05/25 10:19:16;;;;;;;;;;;20.90;82.50;;;;;;5017321;28;19999;-81
2023/05/25 10:21:49;;;;;;;;;;;21.30;82.40;;;;;;5026082;28;19920;-78
2023/05/25 10:24:23;;;;;;;;;;;21.60;81.80;;;;;;5026485;28;19908;-79
2023/05/25 10:26:49;;;;;;;;;;;21.90;80.20;;;;;;5027972;28;20349;-79
2023/05/25 10:29:19;;;;;;;;;;;22.30;79.50;;;;;;5027927;28;19978;-80
2023/05/25 10:31:45;;;;;;;;;;;22.50;75.70;;;;;;5024545;28;20322;-79
2023/05/25 10:34:10;;;;;;;;;;;22.60;75.70;;;;;;5028802;28;19913;-80
2023/05/25 10:36:39;;;;;;;;;;;22.70;74.60;;;;;;5021564;28;20685;-80
2023/05/25 10:39:07;;;;;;;;;;;22.80;76.10;;;;;;5013852;28;19913;-80
2023/05/25 10:41:32;;;;;;;;;;;22.90;73.80;;;;;;5014747;28;21523;-80
2023/05/25 10:43:58;;;;;;;;;;;22.80;72.80;;;;;;5021262;28;19920;-78
2023/05/25 10:46:24;;;;;;;;;;;22.70;72.90;;;;;;5024541;28;19971;-78
2023/05/25 10:48:54;;;;;;;;;;;22.50;73.10;;;;;;5027766;28;20374;-79
2023/05/25 10:51:20;;;;;;;;;;;22.10;73.50;;;;;;5021894;28;19921;-78
2023/05/25 10:53:56;;;;;;;;;;;22.10;74.80;;;;;;5017755;28;19965;-77
2023/05/25 10:56:22;;;;;;;;;;;22.20;75.80;;;;;;5017140;28;19928;-80
2023/05/25 10:58:48;;;;;;;;;;;22.20;75.10;;;;;;5019412;28;19913;-78
2023/05/25 11:01:14;;;;;;;;;;;22.10;73.00;;;;;;5019272;28;19921;-79
2023/05/25 11:03:42;;;;;;;;;;;21.90;73.40;;;;;;5021112;28;19942;-80
2023/05/25 11:06:09;;;;;;;;;;;21.70;72.00;;;;;;5021731;28;19935;-78
2023/05/25 11:08:53;;;;;;;;;;;21.60;72.70;;;;;;5019057;28;19948;-77
2023/05/25 11:11:18;;;;;;;;;;;21.70;74.00;;;;;;5017262;28;19921;-78
2023/05/25 11:13:48;;;;;;;;;;;21.80;75.40;;;;;;5023704;28;19916;-78
2023/05/25 11:16:18;;;;;;;;;;;21.80;74.30;;;;;;5019759;28;19952;-79
2023/05/25 11:18:47;;;;;;;;;;;21.90;73.20;;;;;;5029343;28;19991;-78
2023/05/25 11:21:13;;;;;;;;;;;22.00;74.70;;;;;;5029320;28;20272;-77
2023/05/25 11:23:52;;;;;;;;;;;22.20;75.90;;;;;;5028379;28;19916;-78
2023/05/25 11:26:21;;;;;;;;;;;22.20;75.60;;;;;;5024623;28;19991;-79
2023/05/25 11:28:47;;;;;;;;;;;22.30;75.00;;;;;;5030254;28;20035;-77
2023/05/25 11:31:13;;;;;;;;;;;22.40;73.70;;;;;;5029296;28;20020;-77
2023/05/25 11:33:38;;;;;;;;;;;22.50;72.90;;;;;;5022926;28;19910;-78
2023/05/25 11:36:04;;;;;;;;;;;22.50;72.30;;;;;;5023261;28;19913;-76
2023/05/25 11:38:30;;;;;;;;;;;22.50;73.10;;;;;;5029886;28;19935;-77
2023/05/25 11:40:55;;;;;;;;;;;22.60;74.10;;;;;;5030313;28;19906;-77
2023/05/25 11:43:22;;;;;;;;;;;22.70;74.20;;;;;;5030027;28;19912;-77
2023/05/25 11:45:55;;;;;;;;;;;22.80;73.60;;;;;;5030138;28;19913;-77
2023/05/25 11:48:21;;;;;;;;;;;22.80;73.80;;;;;;5030229;28;19920;-77
2023/05/25 11:50:46;;;;;;;;;;;22.80;74.10;;;;;;5021320;28;19921;-79
2023/05/25 11:53:12;;;;;;;;;;;22.90;74.90;;;;;;5020486;28;19912;-78
2023/05/25 11:55:40;;;;;;;;;;;22.90;74.30;;;;;;5023888;28;19916;-78
2023/05/25 11:58:05;;;;;;;;;;;22.90;73.80;;;;;;5020293;28;19933;-78
2023/05/25 12:00:31;;;;;;;;;;;22.90;73.10;;;;;;5023805;28;20310;-78
2023/05/25 12:02:56;;;;;;;;;;;23.00;73.70;;;;;;5027546;28;20366;-78
2023/05/25 12:05:23;;;;;;;;;;;23.20;73.90;;;;;;5027366;28;19904;-79
2023/05/25 12:07:48;;;;;;;;;;;23.40;73.80;;;;;;5024210;28;20000;-78
2023/05/25 12:10:15;;;;;;;;;;;23.70;73.90;;;;;;5016959;28;19932;-78
2023/05/25 12:12:45;;;;;;;;;;;24.00;73.30;;;;;;5017632;28;19924;-78
2023/05/25 12:15:14;;;;;;;;;;;24.40;73.10;;;;;;5017307;28;19999;-77
2023/05/25 12:17:41;;;;;;;;;;;25.00;71.00;;;;;;5018643;28;21178;-78
2023/05/25 12:20:08;;;;;;;;;;;25.70;68.30;;;;;;5016680;28;20322;-77
2023/05/25 12:22:34;;;;;;;;;;;26.50;66.70;;;;;;5012558;28;19920;-77
2023/05/25 12:25:00;;;;;;;;;;;27.10;65.40;;;;;;5026530;28;20023;-77
2023/05/25 12:27:25;;;;;;;;;;;27.60;63.10;;;;;;5029732;28;20037;-77
2023/05/25 12:29:51;;;;;;;;;;;28.10;60.80;;;;;;5028353;28;20504;-76
2023/05/25 12:32:17;;;;;;;;;;;28.50;60.70;;;;;;5029573;28;20342;-77
2023/05/25 12:34:43;;;;;;;;;;;28.90;60.50;;;;;;5030172;28;19909;-78
2023/05/25 12:37:19;;;;;;;;;;;29.60;59.00;;;;;;5032551;28;19913;-77
2023/05/25 12:39:44;;;;;;;;;;;30.20;58.20;;;;;;5027219;28;19920;-77
2023/05/25 12:42:14;;;;;;;;;;;31.00;56.60;;;;;;5030248;28;19909;-77
2023/05/25 12:44:40;;;;;;;;;;;31.70;53.70;;;;;;5033359;28;20309;-77
2023/05/25 12:47:15;;;;;;;;;;;32.10;52.30;;;;;;5033145;28;20374;-78
2023/05/25 12:49:45;;;;;;;;;;;32.30;52.90;;;;;;5032836;28;20503;-78
2023/05/25 12:52:29;;;;;;;;;;;32.40;52.80;;;;;;5033098;28;20302;-78
2023/05/25 12:54:55;;;;;;;;;;;32.60;53.90;;;;;;5021243;28;20272;-78
2023/05/25 12:57:20;;;;;;;;;;;33.10;53.80;;;;;;5032925;28;19909;-78
2023/05/25 12:59:46;;;;;;;;;;;33.60;52.70;;;;;;5032840;28;19905;-78
2023/05/25 13:02:12;;;;;;;;;;;34.10;52.20;;;;;;5027626;28;19909;-78
2023/05/25 13:04:38;;;;;;;;;;;34.50;50.90;;;;;;5032604;28;19909;-78
2023/05/25 13:07:07;;;;;;;;;;;34.80;48.20;;;;;;5028285;28;20000;-78
2023/05/25 13:09:33;;;;;;;;;;;35.00;47.90;;;;;;5032866;28;19956;-78
2023/05/25 13:11:59;;;;;;;;;;;35.00;46.30;;;;;;5028036;28;19952;-78
2023/05/25 13:14:25;;;;;;;;;;;35.10;47.10;;;;;;5020143;28;19913;-79
2023/05/25 13:16:51;;;;;;;;;;;35.20;47.60;;;;;;5020451;28;19909;-78
2023/05/25 13:19:17;;;;;;;;;;;35.40;47.70;;;;;;5020343;28;20276;-78
2023/05/25 13:21:44;;;;;;;;;;;35.50;48.20;;;;;;5018705;28;20416;-78
2023/05/25 13:24:10;;;;;;;;;;;35.70;47.00;;;;;;5018168;28;19971;-79
2023/05/25 13:26:36;;;;;;;;;;;36.00;46.30;;;;;;5021608;28;19912;-77
2023/05/25 13:29:01;;;;;;;;;;;36.30;44.80;;;;;;5025866;28;19917;-80
2023/05/25 13:31:27;;;;;;;;;;;36.20;45.40;;;;;;5022900;28;19987;-78
2023/05/25 13:33:52;;;;;;;;;;;36.20;45.60;;;;;;5034977;28;19970;-78
2023/05/25 13:36:18;;;;;;;;;;;36.20;45.30;;;;;;5030837;28;19963;-78
2023/05/25 13:38:44;;;;;;;;;;;36.40;45.20;;;;;;5026437;28;19920;-78
2023/05/25 13:41:10;;;;;;;;;;;36.50;43.80;;;;;;5033243;28;20441;-78
2023/05/25 13:43:35;;;;;;;;;;;36.50;43.70;;;;;;5028319;28;19959;-78
2023/05/25 13:46:01;;;;;;;;;;;36.40;43.20;;;;;;5018630;28;19913;-79
2023/05/25 13:48:28;;;;;;;;;;;36.40;43.70;;;;;;5022108;28;19913;-76
2023/05/25 13:50:54;;;;;;;;;;;36.50;43.70;;;;;;5018319;28;19921;-77
2023/05/25 13:53:19;;;;;;;;;;;36.70;44.60;;;;;;5018576;28;20059;-77
2023/05/25 13:55:45;;;;;;;;;;;37.00;44.30;;;;;;5020448;28;19924;-79
2023/05/25 13:58:11;;;;;;;;;;;37.20;43.30;;;;;;5023640;28;19924;-79
2023/05/25 14:00:36;;;;;;;;;;;37.20;43.70;;;;;;5018799;28;19913;-79
2023/05/25 14:03:02;;;;;;;;;;;37.40;43.80;;;;;;5018789;28;19913;-78
2023/05/25 14:05:29;;;;;;;;;;;37.60;43.60;;;;;;5020985;28;19951;-79
2023/05/25 14:07:55;;;;;;;;;;;37.60;42.20;;;;;;5020588;28;19917;-83
2023/05/25 14:10:21;;;;;;;;;;;37.40;41.80;;;;;;5019496;28;19975;-83
2023/05/25 14:12:46;;;;;;;;;;;37.10;42.20;;;;;;5015236;28;19917;-83
2023/05/25 14:15:12;;;;;;;;;;;37.00;43.10;;;;;;5019975;28;20402;-81